Fort Myers Airport, FL

5:16 PM EST on December 06, 2016 (GMT -0500)
Southwest Florida International | | Change Station

Elev 30 ft 26.54 °N, 81.76 °W | Updated 15 minutes ago

Heavy Rain
Heavy Rain Mist
78 °F
Feels Like 78 °F
N
15
Wind Variable Wind from West
Gusts 24 mph

Today
High -- | Low -- °F
--% Chance of Precip.
Yesterday
High -- | Low -- °F
Precip. -- in
Pressure 29.93 in
Visibility 1.8 miles
Clouds Few 700 ft
Mostly Cloudy 1800 ft
Overcast 3600 ft
Dew Point 75 °F
Humidity 90%
Rainfall 0.05 in
Snow Depth Not available.
7:02 AM 5:34 PM
Waxing Crescent, 45% visible
SPECI KRSW 062201Z 27013G21KT 1 3/4SM +RA BR FEW007 BKN018 OVC036 26/24 A2993 RMK AO2 PRESRR P0012 T02560239
Pressure 29.93 in
Visibility 1.8 miles
Clouds Few 700 ft
Mostly Cloudy 1800 ft
Overcast 3600 ft
Dew Point 75 °F
Humidity 90%
Rainfall 0.05 in
Snow Depth Not available.
7:02 AM 5:34 PM
Waxing Crescent, 45% visible
SPECI KRSW 062201Z 27013G21KT 1 3/4SM +RA BR FEW007 BKN018 OVC036 26/24 A2993 RMK AO2 PRESRR P0012 T02560239

10-Day Weather Forecast

Almanac

Astronomy

Dec. 06, 2016 Rise Set
Actual Time
Civil Twilight
Nautical Twilight
Astronomical Twilight
Moon
Length of Visible Light
Length of Day
Tomorrow will be .
, % of the Moon is Illuminated

Today's Extremes

State Highs State Lows

Community

WunderPhotos

Upload Photos

1,956,038 photos uploaded!

WunderBlog® & News

Nearby

Air Quality

  Air Quality AQ Index Pollutant
Not available.

Snow Depth

Station Depth Elevation

Earthquake Activity

City Distance Mag. Time & Date
Minimum magnitude displayed is 2.5.

Coastal Water Temperatures

Place Temperature

Stations

Nearby Weather Stations

Station Location Temp. Windchill Dew Point Humidity Wind Precip. Elev Updated Type
                   

Watches & Warnings

There are currently no watches in effect.